sensor_id;sensor_type;location;lat;lon;timestamp;P1;durP1;ratioP1;P2;durP2;ratioP2
179;SDS011;78;48.788;9.010;2022-11-09T00:00:51;22.10;;;6.00;;
179;SDS011;78;48.788;9.010;2022-11-09T00:03:17;20.23;;;6.00;;
179;SDS011;78;48.788;9.010;2022-11-09T00:05:53;22.63;;;5.90;;
179;SDS011;78;48.788;9.010;2022-11-09T00:08:19;20.37;;;6.00;;
179;SDS011;78;48.788;9.010;2022-11-09T00:10:45;24.10;;;6.13;;
179;SDS011;78;48.788;9.010;2022-11-09T00:13:12;20.57;;;5.60;;
179;SDS011;78;48.788;9.010;2022-11-09T00:15:38;20.50;;;5.40;;
179;SDS011;78;48.788;9.010;2022-11-09T00:18:04;18.87;;;5.43;;
179;SDS011;78;48.788;9.010;2022-11-09T00:20:30;21.43;;;5.73;;
179;SDS011;78;48.788;9.010;2022-11-09T00:22:57;19.53;;;5.90;;
179;SDS011;78;48.788;9.010;2022-11-09T00:25:23;22.40;;;5.40;;
179;SDS011;78;48.788;9.010;2022-11-09T00:27:49;25.10;;;6.10;;
179;SDS011;78;48.788;9.010;2022-11-09T00:30:16;19.17;;;5.17;;
179;SDS011;78;48.788;9.010;2022-11-09T00:32:42;22.30;;;5.23;;
179;SDS011;78;48.788;9.010;2022-11-09T00:35:09;21.80;;;5.70;;
179;SDS011;78;48.788;9.010;2022-11-09T00:37:35;19.93;;;5.30;;
179;SDS011;78;48.788;9.010;2022-11-09T00:40:02;20.77;;;5.60;;
179;SDS011;78;48.788;9.010;2022-11-09T00:42:28;21.27;;;5.77;;
179;SDS011;78;48.788;9.010;2022-11-09T00:44:54;20.33;;;5.50;;
179;SDS011;78;48.788;9.010;2022-11-09T00:47:20;21.50;;;5.57;;
179;SDS011;78;48.788;9.010;2022-11-09T00:49:47;21.80;;;5.33;;
179;SDS011;78;48.788;9.010;2022-11-09T00:52:13;20.40;;;5.50;;
179;SDS011;78;48.788;9.010;2022-11-09T00:54:39;19.80;;;5.23;;
179;SDS011;78;48.788;9.010;2022-11-09T00:57:06;21.97;;;5.30;;
179;SDS011;78;48.788;9.010;2022-11-09T00:59:32;19.30;;;5.13;;
179;SDS011;78;48.788;9.010;2022-11-09T01:01:58;22.50;;;5.77;;
179;SDS011;78;48.788;9.010;2022-11-09T01:04:24;19.73;;;5.33;;
179;SDS011;78;48.788;9.010;2022-11-09T01:06:51;21.77;;;5.60;;
179;SDS011;78;48.788;9.010;2022-11-09T01:09:17;21.13;;;5.63;;
179;SDS011;78;48.788;9.010;2022-11-09T01:11:44;22.10;;;6.27;;
179;SDS011;78;48.788;9.010;2022-11-09T01:14:10;19.77;;;5.40;;
179;SDS011;78;48.788;9.010;2022-11-09T01:16:37;26.07;;;5.20;;
179;SDS011;78;48.788;9.010;2022-11-09T01:19:03;20.83;;;5.57;;
179;SDS011;78;48.788;9.010;2022-11-09T01:21:30;20.73;;;5.90;;
179;SDS011;78;48.788;9.010;2022-11-09T01:23:56;20.00;;;5.40;;
179;SDS011;78;48.788;9.010;2022-11-09T01:26:23;23.10;;;5.73;;
179;SDS011;78;48.788;9.010;2022-11-09T01:28:49;22.33;;;5.77;;
179;SDS011;78;48.788;9.010;2022-11-09T01:31:16;21.80;;;6.17;;
179;SDS011;78;48.788;9.010;2022-11-09T01:33:43;20.37;;;6.10;;
179;SDS011;78;48.788;9.010;2022-11-09T01:36:11;21.83;;;6.07;;
179;SDS011;78;48.788;9.010;2022-11-09T01:38:38;21.87;;;6.20;;
179;SDS011;78;48.788;9.010;2022-11-09T01:41:04;20.77;;;6.20;;
179;SDS011;78;48.788;9.010;2022-11-09T01:43:31;21.97;;;6.53;;
179;SDS011;78;48.788;9.010;2022-11-09T01:46:19;20.43;;;6.00;;
179;SDS011;78;48.788;9.010;2022-11-09T01:48:48;20.90;;;6.27;;
179;SDS011;78;48.788;9.010;2022-11-09T01:51:23;20.83;;;6.20;;
179;SDS011;78;48.788;9.010;2022-11-09T01:53:52;21.30;;;5.73;;
179;SDS011;78;48.788;9.010;2022-11-09T01:56:19;19.57;;;5.70;;
179;SDS011;78;48.788;9.010;2022-11-09T01:58:50;22.27;;;6.20;;
179;SDS011;78;48.788;9.010;2022-11-09T02:01:17;21.30;;;6.30;;
179;SDS011;78;48.788;9.010;2022-11-09T02:03:48;22.90;;;6.00;;
179;SDS011;78;48.788;9.010;2022-11-09T02:06:17;25.83;;;6.83;;
179;SDS011;78;48.788;9.010;2022-11-09T02:08:44;22.37;;;6.33;;
179;SDS011;78;48.788;9.010;2022-11-09T02:11:18;20.23;;;6.17;;
179;SDS011;78;48.788;9.010;2022-11-09T02:13:49;21.80;;;6.00;;
179;SDS011;78;48.788;9.010;2022-11-09T02:16:16;23.50;;;6.20;;
179;SDS011;78;48.788;9.010;2022-11-09T02:18:56;22.00;;;6.10;;
179;SDS011;78;48.788;9.010;2022-11-09T02:21:23;20.40;;;6.10;;
179;SDS011;78;48.788;9.010;2022-11-09T02:23:50;21.07;;;5.83;;
179;SDS011;78;48.788;9.010;2022-11-09T02:26:18;23.80;;;5.87;;
179;SDS011;78;48.788;9.010;2022-11-09T02:28:47;21.30;;;6.53;;
179;SDS011;78;48.788;9.010;2022-11-09T02:31:13;22.50;;;5.90;;
179;SDS011;78;48.788;9.010;2022-11-09T02:33:51;24.33;;;6.93;;
179;SDS011;78;48.788;9.010;2022-11-09T02:36:18;22.00;;;6.30;;
179;SDS011;78;48.788;9.010;2022-11-09T02:38:45;20.53;;;6.03;;
179;SDS011;78;48.788;9.010;2022-11-09T02:41:11;22.97;;;6.37;;
179;SDS011;78;48.788;9.010;2022-11-09T02:43:37;27.10;;;6.70;;
179;SDS011;78;48.788;9.010;2022-11-09T02:46:04;20.67;;;6.10;;
179;SDS011;78;48.788;9.010;2022-11-09T02:48:30;21.37;;;5.90;;
179;SDS011;78;48.788;9.010;2022-11-09T02:50:57;20.80;;;6.40;;
179;SDS011;78;48.788;9.010;2022-11-09T02:53:23;20.00;;;6.10;;
179;SDS011;78;48.788;9.010;2022-11-09T02:55:49;19.27;;;5.83;;
179;SDS011;78;48.788;9.010;2022-11-09T02:58:15;21.40;;;6.10;;
179;SDS011;78;48.788;9.010;2022-11-09T03:00:41;21.10;;;5.90;;
179;SDS011;78;48.788;9.010;2022-11-09T03:03:08;20.10;;;6.00;;
179;SDS011;78;48.788;9.010;2022-11-09T03:05:34;22.23;;;5.93;;
179;SDS011;78;48.788;9.010;2022-11-09T03:08:01;21.43;;;6.30;;
179;SDS011;78;48.788;9.010;2022-11-09T03:10:27;21.50;;;6.03;;
179;SDS011;78;48.788;9.010;2022-11-09T03:12:54;22.03;;;6.40;;
179;SDS011;78;48.788;9.010;2022-11-09T03:15:20;20.33;;;6.33;;
179;SDS011;78;48.788;9.010;2022-11-09T03:17:46;23.10;;;6.77;;
179;SDS011;78;48.788;9.010;2022-11-09T03:20:12;22.87;;;6.70;;
179;SDS011;78;48.788;9.010;2022-11-09T03:22:39;23.60;;;7.40;;
179;SDS011;78;48.788;9.010;2022-11-09T03:25:05;23.10;;;6.50;;
179;SDS011;78;48.788;9.010;2022-11-09T03:27:31;25.53;;;7.90;;
179;SDS011;78;48.788;9.010;2022-11-09T03:29:58;27.53;;;7.10;;
179;SDS011;78;48.788;9.010;2022-11-09T03:32:24;25.70;;;7.00;;
179;SDS011;78;48.788;9.010;2022-11-09T03:34:50;21.97;;;6.80;;
179;SDS011;78;48.788;9.010;2022-11-09T03:37:16;22.97;;;6.70;;
179;SDS011;78;48.788;9.010;2022-11-09T03:39:43;23.03;;;7.47;;
179;SDS011;78;48.788;9.010;2022-11-09T03:42:09;22.60;;;7.00;;
179;SDS011;78;48.788;9.010;2022-11-09T03:44:35;22.60;;;7.00;;
179;SDS011;78;48.788;9.010;2022-11-09T03:47:02;23.47;;;7.20;;
179;SDS011;78;48.788;9.010;2022-11-09T03:49:28;24.43;;;7.10;;
179;SDS011;78;48.788;9.010;2022-11-09T03:51:54;24.77;;;7.40;;
179;SDS011;78;48.788;9.010;2022-11-09T03:54:20;23.03;;;7.07;;
179;SDS011;78;48.788;9.010;2022-11-09T03:56:47;24.13;;;6.83;;
179;SDS011;78;48.788;9.010;2022-11-09T03:59:13;21.40;;;6.40;;
179;SDS011;78;48.788;9.010;2022-11-09T04:01:39;22.57;;;6.30;;
179;SDS011;78;48.788;9.010;2022-11-09T04:04:06;22.13;;;6.30;;
179;SDS011;78;48.788;9.010;2022-11-09T04:06:32;24.23;;;6.70;;
179;SDS011;78;48.788;9.010;2022-11-09T04:08:59;24.10;;;7.03;;
179;SDS011;78;48.788;9.010;2022-11-09T04:11:24;22.30;;;6.33;;
179;SDS011;78;48.788;9.010;2022-11-09T04:13:51;24.77;;;6.10;;
179;SDS011;78;48.788;9.010;2022-11-09T04:16:17;23.57;;;6.00;;
179;SDS011;78;48.788;9.010;2022-11-09T04:18:44;20.97;;;6.47;;
179;SDS011;78;48.788;9.010;2022-11-09T04:21:10;24.07;;;6.50;;
179;SDS011;78;48.788;9.010;2022-11-09T04:23:37;23.63;;;6.20;;
179;SDS011;78;48.788;9.010;2022-11-09T04:26:03;21.27;;;6.03;;
179;SDS011;78;48.788;9.010;2022-11-09T04:28:29;22.80;;;5.87;;
179;SDS011;78;48.788;9.010;2022-11-09T04:30:59;23.20;;;6.60;;
179;SDS011;78;48.788;9.010;2022-11-09T04:33:25;20.00;;;6.40;;
179;SDS011;78;48.788;9.010;2022-11-09T04:35:52;21.73;;;6.47;;
179;SDS011;78;48.788;9.010;2022-11-09T04:38:19;20.67;;;5.73;;
179;SDS011;78;48.788;9.010;2022-11-09T04:40:45;18.77;;;5.00;;
179;SDS011;78;48.788;9.010;2022-11-09T04:43:12;23.43;;;4.80;;
179;SDS011;78;48.788;9.010;2022-11-09T04:45:40;18.60;;;4.37;;
179;SDS011;78;48.788;9.010;2022-11-09T04:48:06;17.50;;;3.20;;
179;SDS011;78;48.788;9.010;2022-11-09T04:50:32;16.90;;;3.80;;
179;SDS011;78;48.788;9.010;2022-11-09T04:53:08;18.23;;;3.90;;
179;SDS011;78;48.788;9.010;2022-11-09T04:55:35;18.27;;;3.93;;
179;SDS011;78;48.788;9.010;2022-11-09T04:58:01;17.27;;;3.90;;
179;SDS011;78;48.788;9.010;2022-11-09T05:00:27;19.50;;;4.13;;
179;SDS011;78;48.788;9.010;2022-11-09T05:02:53;16.80;;;4.10;;
179;SDS011;78;48.788;9.010;2022-11-09T05:05:19;21.80;;;4.80;;
179;SDS011;78;48.788;9.010;2022-11-09T05:07:45;18.33;;;4.37;;
179;SDS011;78;48.788;9.010;2022-11-09T05:10:11;18.23;;;4.10;;
179;SDS011;78;48.788;9.010;2022-11-09T05:12:37;17.90;;;4.30;;
179;SDS011;78;48.788;9.010;2022-11-09T05:15:03;19.23;;;4.20;;
179;SDS011;78;48.788;9.010;2022-11-09T05:17:29;21.20;;;4.30;;
179;SDS011;78;48.788;9.010;2022-11-09T05:19:56;17.93;;;4.10;;
179;SDS011;78;48.788;9.010;2022-11-09T05:22:22;17.80;;;4.40;;
179;SDS011;78;48.788;9.010;2022-11-09T05:25:07;18.17;;;4.40;;
179;SDS011;78;48.788;9.010;2022-11-09T05:27:33;20.37;;;4.80;;
179;SDS011;78;48.788;9.010;2022-11-09T05:29:59;20.30;;;4.53;;
179;SDS011;78;48.788;9.010;2022-11-09T05:32:25;17.60;;;4.17;;
179;SDS011;78;48.788;9.010;2022-11-09T05:34:51;23.30;;;5.40;;
179;SDS011;78;48.788;9.010;2022-11-09T05:37:17;17.40;;;4.40;;
179;SDS011;78;48.788;9.010;2022-11-09T05:39:46;18.27;;;4.50;;
179;SDS011;78;48.788;9.010;2022-11-09T05:42:12;20.80;;;4.47;;
179;SDS011;78;48.788;9.010;2022-11-09T05:44:39;21.63;;;4.60;;
179;SDS011;78;48.788;9.010;2022-11-09T05:47:05;19.67;;;5.10;;
179;SDS011;78;48.788;9.010;2022-11-09T05:49:31;18.63;;;5.30;;
179;SDS011;78;48.788;9.010;2022-11-09T05:51:57;23.40;;;4.80;;
179;SDS011;78;48.788;9.010;2022-11-09T05:54:24;19.30;;;4.60;;
179;SDS011;78;48.788;9.010;2022-11-09T05:56:50;18.40;;;5.10;;
179;SDS011;78;48.788;9.010;2022-11-09T05:59:17;18.73;;;5.70;;
179;SDS011;78;48.788;9.010;2022-11-09T06:01:43;21.00;;;5.60;;
179;SDS011;78;48.788;9.010;2022-11-09T06:04:09;21.43;;;6.20;;
179;SDS011;78;48.788;9.010;2022-11-09T06:06:35;24.10;;;6.20;;
179;SDS011;78;48.788;9.010;2022-11-09T06:09:01;20.17;;;5.97;;
179;SDS011;78;48.788;9.010;2022-11-09T06:11:28;23.93;;;7.00;;
179;SDS011;78;48.788;9.010;2022-11-09T06:13:54;19.80;;;5.90;;
179;SDS011;78;48.788;9.010;2022-11-09T06:16:21;21.03;;;5.83;;
179;SDS011;78;48.788;9.010;2022-11-09T06:18:47;23.13;;;6.30;;
179;SDS011;78;48.788;9.010;2022-11-09T06:21:13;21.80;;;6.27;;
179;SDS011;78;48.788;9.010;2022-11-09T06:23:39;23.13;;;6.53;;
179;SDS011;78;48.788;9.010;2022-11-09T06:26:06;20.57;;;6.30;;
179;SDS011;78;48.788;9.010;2022-11-09T06:28:33;24.07;;;6.80;;
179;SDS011;78;48.788;9.010;2022-11-09T06:31:00;20.73;;;6.57;;
179;SDS011;78;48.788;9.010;2022-11-09T06:33:28;21.00;;;6.83;;
179;SDS011;78;48.788;9.010;2022-11-09T06:35:55;23.03;;;6.63;;
179;SDS011;78;48.788;9.010;2022-11-09T06:38:21;20.13;;;6.17;;
179;SDS011;78;48.788;9.010;2022-11-09T06:40:50;23.63;;;6.40;;
179;SDS011;78;48.788;9.010;2022-11-09T06:43:16;27.13;;;6.40;;
179;SDS011;78;48.788;9.010;2022-11-09T06:45:42;22.80;;;6.13;;
179;SDS011;78;48.788;9.010;2022-11-09T06:48:09;24.43;;;6.10;;
179;SDS011;78;48.788;9.010;2022-11-09T06:50:35;21.70;;;6.47;;
179;SDS011;78;48.788;9.010;2022-11-09T06:53:03;22.37;;;6.50;;
179;SDS011;78;48.788;9.010;2022-11-09T06:55:30;21.90;;;6.70;;
179;SDS011;78;48.788;9.010;2022-11-09T06:57:56;24.20;;;6.23;;
179;SDS011;78;48.788;9.010;2022-11-09T07:00:22;20.97;;;5.70;;
179;SDS011;78;48.788;9.010;2022-11-09T07:02:49;21.27;;;7.03;;
179;SDS011;78;48.788;9.010;2022-11-09T07:05:15;22.60;;;7.20;;
179;SDS011;78;48.788;9.010;2022-11-09T07:07:41;23.57;;;7.63;;
179;SDS011;78;48.788;9.010;2022-11-09T07:10:07;24.80;;;8.00;;
179;SDS011;78;48.788;9.010;2022-11-09T07:12:33;23.87;;;8.30;;
179;SDS011;78;48.788;9.010;2022-11-09T07:14:59;26.40;;;7.80;;
179;SDS011;78;48.788;9.010;2022-11-09T07:17:28;22.40;;;5.90;;
179;SDS011;78;48.788;9.010;2022-11-09T07:19:54;20.10;;;5.30;;
179;SDS011;78;48.788;9.010;2022-11-09T07:22:20;22.13;;;4.93;;
179;SDS011;78;48.788;9.010;2022-11-09T07:24:46;18.67;;;4.87;;
179;SDS011;78;48.788;9.010;2022-11-09T07:27:12;16.67;;;4.50;;
179;SDS011;78;48.788;9.010;2022-11-09T07:29:39;19.20;;;5.00;;
179;SDS011;78;48.788;9.010;2022-11-09T07:32:05;18.47;;;5.03;;
179;SDS011;78;48.788;9.010;2022-11-09T07:34:31;20.07;;;5.17;;
179;SDS011;78;48.788;9.010;2022-11-09T07:36:57;24.10;;;6.50;;
179;SDS011;78;48.788;9.010;2022-11-09T07:39:23;21.90;;;6.53;;
179;SDS011;78;48.788;9.010;2022-11-09T07:41:49;22.03;;;5.50;;
179;SDS011;78;48.788;9.010;2022-11-09T07:44:15;21.77;;;5.80;;
179;SDS011;78;48.788;9.010;2022-11-09T07:46:47;19.50;;;5.50;;
179;SDS011;78;48.788;9.010;2022-11-09T07:49:14;18.87;;;5.27;;
179;SDS011;78;48.788;9.010;2022-11-09T07:51:40;19.73;;;5.27;;
179;SDS011;78;48.788;9.010;2022-11-09T07:54:07;19.10;;;5.63;;
179;SDS011;78;48.788;9.010;2022-11-09T07:56:33;22.83;;;5.30;;
179;SDS011;78;48.788;9.010;2022-11-09T07:58:59;18.50;;;5.00;;
179;SDS011;78;48.788;9.010;2022-11-09T08:01:25;18.10;;;4.50;;
179;SDS011;78;48.788;9.010;2022-11-09T08:03:51;19.50;;;4.67;;
179;SDS011;78;48.788;9.010;2022-11-09T08:06:19;28.60;;;5.50;;
179;SDS011;78;48.788;9.010;2022-11-09T08:08:45;19.40;;;4.90;;
179;SDS011;78;48.788;9.010;2022-11-09T08:11:13;20.37;;;4.80;;
179;SDS011;78;48.788;9.010;2022-11-09T08:13:40;19.53;;;4.30;;
179;SDS011;78;48.788;9.010;2022-11-09T08:16:06;20.37;;;4.70;;
179;SDS011;78;48.788;9.010;2022-11-09T08:18:32;23.70;;;5.30;;
179;SDS011;78;48.788;9.010;2022-11-09T08:21:02;19.20;;;5.40;;
179;SDS011;78;48.788;9.010;2022-11-09T08:23:28;18.77;;;4.87;;
179;SDS011;78;48.788;9.010;2022-11-09T08:25:54;18.27;;;4.97;;
179;SDS011;78;48.788;9.010;2022-11-09T08:28:20;18.80;;;5.27;;
179;SDS011;78;48.788;9.010;2022-11-09T08:30:53;21.13;;;6.00;;
179;SDS011;78;48.788;9.010;2022-11-09T08:33:20;19.83;;;6.13;;
179;SDS011;78;48.788;9.010;2022-11-09T08:35:46;19.80;;;5.40;;
179;SDS011;78;48.788;9.010;2022-11-09T08:38:12;20.67;;;6.17;;
179;SDS011;78;48.788;9.010;2022-11-09T08:40:38;20.77;;;5.53;;
179;SDS011;78;48.788;9.010;2022-11-09T08:43:05;18.20;;;5.13;;
179;SDS011;78;48.788;9.010;2022-11-09T08:45:33;22.67;;;5.60;;
179;SDS011;78;48.788;9.010;2022-11-09T08:47:59;20.33;;;5.10;;
179;SDS011;78;48.788;9.010;2022-11-09T08:50:27;22.90;;;5.57;;
179;SDS011;78;48.788;9.010;2022-11-09T08:52:54;19.70;;;4.90;;
179;SDS011;78;48.788;9.010;2022-11-09T08:55:21;18.37;;;4.30;;
179;SDS011;78;48.788;9.010;2022-11-09T08:57:47;17.27;;;4.17;;
179;SDS011;78;48.788;9.010;2022-11-09T09:00:13;18.80;;;4.03;;
179;SDS011;78;48.788;9.010;2022-11-09T09:02:40;18.00;;;3.93;;
179;SDS011;78;48.788;9.010;2022-11-09T09:05:06;18.57;;;3.80;;
179;SDS011;78;48.788;9.010;2022-11-09T09:07:32;20.40;;;3.67;;
179;SDS011;78;48.788;9.010;2022-11-09T09:09:58;18.83;;;4.00;;
179;SDS011;78;48.788;9.010;2022-11-09T09:12:24;15.80;;;3.47;;
179;SDS011;78;48.788;9.010;2022-11-09T09:14:50;17.70;;;3.60;;
179;SDS011;78;48.788;9.010;2022-11-09T09:17:16;16.77;;;3.40;;
179;SDS011;78;48.788;9.010;2022-11-09T09:19:42;16.70;;;3.40;;
179;SDS011;78;48.788;9.010;2022-11-09T09:22:08;15.57;;;3.47;;
179;SDS011;78;48.788;9.010;2022-11-09T09:24:34;16.20;;;3.60;;
179;SDS011;78;48.788;9.010;2022-11-09T09:27:00;15.43;;;2.77;;
179;SDS011;78;48.788;9.010;2022-11-09T09:29:26;15.30;;;2.87;;
179;SDS011;78;48.788;9.010;2022-11-09T09:31:52;15.40;;;2.70;;
179;SDS011;78;48.788;9.010;2022-11-09T09:34:18;17.93;;;2.73;;
179;SDS011;78;48.788;9.010;2022-11-09T09:36:44;14.47;;;2.77;;
179;SDS011;78;48.788;9.010;2022-11-09T09:39:10;15.50;;;2.60;;
179;SDS011;78;48.788;9.010;2022-11-09T09:41:38;15.47;;;2.60;;
179;SDS011;78;48.788;9.010;2022-11-09T09:44:28;14.47;;;2.60;;
179;SDS011;78;48.788;9.010;2022-11-09T09:49:19;14.30;;;2.73;;
179;SDS011;78;48.788;9.010;2022-11-09T09:51:53;14.80;;;2.80;;
179;SDS011;78;48.788;9.010;2022-11-09T09:54:20;15.67;;;2.60;;
179;SDS011;78;48.788;9.010;2022-11-09T09:56:47;15.10;;;2.80;;
179;SDS011;78;48.788;9.010;2022-11-09T09:59:17;14.93;;;2.80;;
179;SDS011;78;48.788;9.010;2022-11-09T10:01:45;15.20;;;2.60;;
179;SDS011;78;48.788;9.010;2022-11-09T10:04:21;15.60;;;3.33;;
179;SDS011;78;48.788;9.010;2022-11-09T10:09:35;15.63;;;3.07;;
179;SDS011;78;48.788;9.010;2022-11-09T10:12:10;16.27;;;3.03;;
179;SDS011;78;48.788;9.010;2022-11-09T10:15:43;15.70;;;3.40;;
179;SDS011;78;48.788;9.010;2022-11-09T10:20:36;17.10;;;3.73;;
179;SDS011;78;48.788;9.010;2022-11-09T10:25:49;16.07;;;3.70;;
179;SDS011;78;48.788;9.010;2022-11-09T10:28:18;16.23;;;3.80;;
179;SDS011;78;48.788;9.010;2022-11-09T10:30:47;15.33;;;3.40;;
179;SDS011;78;48.788;9.010;2022-11-09T10:33:15;15.67;;;3.87;;
179;SDS011;78;48.788;9.010;2022-11-09T10:35:47;19.17;;;3.90;;
179;SDS011;78;48.788;9.010;2022-11-09T10:38:17;17.30;;;3.87;;
179;SDS011;78;48.788;9.010;2022-11-09T10:40:52;19.83;;;4.43;;
179;SDS011;78;48.788;9.010;2022-11-09T10:43:18;17.57;;;4.10;;
179;SDS011;78;48.788;9.010;2022-11-09T10:45:45;21.57;;;4.40;;
179;SDS011;78;48.788;9.010;2022-11-09T10:48:28;18.10;;;3.87;;
179;SDS011;78;48.788;9.010;2022-11-09T10:50:54;16.97;;;3.40;;
179;SDS011;78;48.788;9.010;2022-11-09T10:53:21;17.43;;;3.53;;
179;SDS011;78;48.788;9.010;2022-11-09T11:03:28;16.47;;;3.87;;
179;SDS011;78;48.788;9.010;2022-11-09T11:06:04;17.80;;;3.93;;
179;SDS011;78;48.788;9.010;2022-11-09T11:08:33;16.30;;;3.87;;
179;SDS011;78;48.788;9.010;2022-11-09T11:13:44;17.67;;;3.60;;
179;SDS011;78;48.788;9.010;2022-11-09T11:16:53;16.70;;;3.87;;
179;SDS011;78;48.788;9.010;2022-11-09T11:19:00;17.07;;;4.17;;
179;SDS011;78;48.788;9.010;2022-11-09T11:21:26;19.47;;;4.57;;
179;SDS011;78;48.788;9.010;2022-11-09T11:26:33;16.20;;;3.67;;
179;SDS011;78;48.788;9.010;2022-11-09T11:29:03;16.77;;;3.97;;
179;SDS011;78;48.788;9.010;2022-11-09T11:31:29;18.30;;;4.37;;
179;SDS011;78;48.788;9.010;2022-11-09T11:33:55;15.83;;;3.70;;
179;SDS011;78;48.788;9.010;2022-11-09T11:38:56;16.70;;;3.80;;
179;SDS011;78;48.788;9.010;2022-11-09T11:51:58;17.70;;;4.50;;
179;SDS011;78;48.788;9.010;2022-11-09T11:54:36;16.10;;;4.00;;
179;SDS011;78;48.788;9.010;2022-11-09T11:59:41;20.70;;;4.10;;
179;SDS011;78;48.788;9.010;2022-11-09T12:07:22;23.47;;;4.67;;
179;SDS011;78;48.788;9.010;2022-11-09T12:15:02;20.00;;;4.30;;
179;SDS011;78;48.788;9.010;2022-11-09T12:17:45;16.63;;;4.23;;
179;SDS011;78;48.788;9.010;2022-11-09T12:25:20;19.30;;;4.50;;
179;SDS011;78;48.788;9.010;2022-11-09T12:30:24;18.70;;;5.40;;
179;SDS011;78;48.788;9.010;2022-11-09T12:32:53;18.10;;;4.30;;
179;SDS011;78;48.788;9.010;2022-11-09T12:35:42;18.27;;;4.23;;
179;SDS011;78;48.788;9.010;2022-11-09T12:40:41;19.23;;;4.80;;
179;SDS011;78;48.788;9.010;2022-11-09T12:45:41;19.20;;;4.90;;
179;SDS011;78;48.788;9.010;2022-11-09T12:48:21;19.43;;;5.33;;
179;SDS011;78;48.788;9.010;2022-11-09T12:50:48;17.30;;;4.40;;
179;SDS011;78;48.788;9.010;2022-11-09T12:53:15;18.30;;;4.70;;
179;SDS011;78;48.788;9.010;2022-11-09T12:55:42;20.40;;;4.80;;
179;SDS011;78;48.788;9.010;2022-11-09T13:00:49;18.60;;;5.20;;
179;SDS011;78;48.788;9.010;2022-11-09T13:03:37;22.90;;;4.70;;
179;SDS011;78;48.788;9.010;2022-11-09T13:06:07;17.90;;;4.57;;
179;SDS011;78;48.788;9.010;2022-11-09T13:08:34;18.70;;;5.00;;
179;SDS011;78;48.788;9.010;2022-11-09T13:11:07;18.93;;;5.23;;
179;SDS011;78;48.788;9.010;2022-11-09T13:13:34;18.20;;;4.97;;
179;SDS011;78;48.788;9.010;2022-11-09T13:16:08;18.23;;;5.00;;
179;SDS011;78;48.788;9.010;2022-11-09T13:23:42;16.90;;;4.43;;
179;SDS011;78;48.788;9.010;2022-11-09T13:26:21;19.97;;;5.50;;
179;SDS011;78;48.788;9.010;2022-11-09T13:39:46;18.43;;;5.30;;
179;SDS011;78;48.788;9.010;2022-11-09T13:47:48;20.60;;;4.60;;
179;SDS011;78;48.788;9.010;2022-11-09T13:50:21;17.97;;;4.33;;
179;SDS011;78;48.788;9.010;2022-11-09T13:52:52;18.83;;;4.50;;
179;SDS011;78;48.788;9.010;2022-11-09T13:55:23;18.77;;;4.47;;
179;SDS011;78;48.788;9.010;2022-11-09T13:57:49;18.50;;;4.57;;
179;SDS011;78;48.788;9.010;2022-11-09T14:00:17;23.10;;;5.13;;
179;SDS011;78;48.788;9.010;2022-11-09T14:02:53;18.83;;;4.60;;
179;SDS011;78;48.788;9.010;2022-11-09T14:05:33;18.30;;;4.40;;
179;SDS011;78;48.788;9.010;2022-11-09T14:08:02;18.37;;;4.63;;
179;SDS011;78;48.788;9.010;2022-11-09T14:10:43;20.93;;;5.57;;
179;SDS011;78;48.788;9.010;2022-11-09T14:21:03;18.73;;;4.20;;
179;SDS011;78;48.788;9.010;2022-11-09T14:23:32;17.47;;;4.30;;
179;SDS011;78;48.788;9.010;2022-11-09T14:26:09;19.67;;;4.50;;
179;SDS011;78;48.788;9.010;2022-11-09T14:28:41;20.70;;;4.70;;
179;SDS011;78;48.788;9.010;2022-11-09T14:34:04;17.90;;;4.40;;
179;SDS011;78;48.788;9.010;2022-11-09T14:36:33;17.23;;;4.60;;
179;SDS011;78;48.788;9.010;2022-11-09T14:39:00;18.70;;;4.40;;
179;SDS011;78;48.788;9.010;2022-11-09T14:41:27;17.60;;;4.17;;
179;SDS011;78;48.788;9.010;2022-11-09T14:43:54;17.77;;;4.27;;
179;SDS011;78;48.788;9.010;2022-11-09T14:46:21;20.43;;;4.53;;
179;SDS011;78;48.788;9.010;2022-11-09T14:48:51;19.33;;;4.37;;
179;SDS011;78;48.788;9.010;2022-11-09T14:51:18;18.23;;;4.87;;
179;SDS011;78;48.788;9.010;2022-11-09T14:53:44;17.27;;;4.23;;
179;SDS011;78;48.788;9.010;2022-11-09T14:56:11;20.63;;;5.40;;
179;SDS011;78;48.788;9.010;2022-11-09T14:58:39;16.57;;;4.37;;
179;SDS011;78;48.788;9.010;2022-11-09T15:01:14;20.50;;;4.77;;
179;SDS011;78;48.788;9.010;2022-11-09T15:04:29;20.87;;;4.77;;
179;SDS011;78;48.788;9.010;2022-11-09T15:06:30;18.20;;;5.00;;
179;SDS011;78;48.788;9.010;2022-11-09T15:08:57;18.70;;;5.00;;
179;SDS011;78;48.788;9.010;2022-11-09T15:11:34;17.77;;;4.50;;
179;SDS011;78;48.788;9.010;2022-11-09T15:14:12;18.73;;;4.60;;
179;SDS011;78;48.788;9.010;2022-11-09T15:16:39;19.60;;;5.37;;
179;SDS011;78;48.788;9.010;2022-11-09T15:19:17;17.37;;;4.10;;
179;SDS011;78;48.788;9.010;2022-11-09T15:21:44;18.10;;;4.57;;
179;SDS011;78;48.788;9.010;2022-11-09T15:29:22;19.30;;;5.20;;
179;SDS011;78;48.788;9.010;2022-11-09T15:34:24;20.63;;;4.70;;
179;SDS011;78;48.788;9.010;2022-11-09T15:36:54;17.20;;;4.40;;
179;SDS011;78;48.788;9.010;2022-11-09T15:39:21;30.03;;;7.40;;
179;SDS011;78;48.788;9.010;2022-11-09T15:41:47;23.93;;;6.67;;
179;SDS011;78;48.788;9.010;2022-11-09T15:44:13;38.17;;;16.00;;
179;SDS011;78;48.788;9.010;2022-11-09T15:46:43;24.17;;;9.17;;
179;SDS011;78;48.788;9.010;2022-11-09T15:51:42;18.23;;;4.60;;
179;SDS011;78;48.788;9.010;2022-11-09T15:54:08;17.80;;;4.17;;
179;SDS011;78;48.788;9.010;2022-11-09T15:56:34;18.50;;;4.43;;
179;SDS011;78;48.788;9.010;2022-11-09T15:59:02;17.43;;;4.17;;
179;SDS011;78;48.788;9.010;2022-11-09T16:01:29;19.00;;;3.80;;
179;SDS011;78;48.788;9.010;2022-11-09T16:03:58;19.43;;;4.27;;
179;SDS011;78;48.788;9.010;2022-11-09T16:06:24;19.43;;;3.70;;
179;SDS011;78;48.788;9.010;2022-11-09T16:08:51;18.00;;;3.70;;
179;SDS011;78;48.788;9.010;2022-11-09T16:11:17;20.37;;;4.03;;
179;SDS011;78;48.788;9.010;2022-11-09T16:13:43;18.70;;;4.50;;
179;SDS011;78;48.788;9.010;2022-11-09T16:16:10;19.33;;;4.60;;
179;SDS011;78;48.788;9.010;2022-11-09T16:18:36;16.60;;;4.33;;
179;SDS011;78;48.788;9.010;2022-11-09T16:21:07;18.50;;;4.57;;
179;SDS011;78;48.788;9.010;2022-11-09T16:23:33;19.70;;;4.50;;
179;SDS011;78;48.788;9.010;2022-11-09T16:26:02;18.80;;;4.50;;
179;SDS011;78;48.788;9.010;2022-11-09T16:28:28;17.43;;;4.43;;
179;SDS011;78;48.788;9.010;2022-11-09T16:30:55;17.30;;;4.33;;
179;SDS011;78;48.788;9.010;2022-11-09T16:33:21;20.90;;;4.47;;
179;SDS011;78;48.788;9.010;2022-11-09T16:35:47;19.03;;;4.27;;
179;SDS011;78;48.788;9.010;2022-11-09T16:38:13;26.03;;;5.10;;
179;SDS011;78;48.788;9.010;2022-11-09T16:40:39;18.90;;;4.70;;
179;SDS011;78;48.788;9.010;2022-11-09T16:43:05;19.53;;;4.37;;
179;SDS011;78;48.788;9.010;2022-11-09T16:45:31;18.63;;;4.20;;
179;SDS011;78;48.788;9.010;2022-11-09T16:47:58;24.40;;;4.90;;
179;SDS011;78;48.788;9.010;2022-11-09T16:50:27;22.23;;;4.47;;
179;SDS011;78;48.788;9.010;2022-11-09T16:52:53;23.53;;;4.73;;
179;SDS011;78;48.788;9.010;2022-11-09T16:55:18;18.47;;;3.83;;
179;SDS011;78;48.788;9.010;2022-11-09T16:57:44;17.33;;;4.20;;
179;SDS011;78;48.788;9.010;2022-11-09T17:00:11;17.40;;;3.70;;
179;SDS011;78;48.788;9.010;2022-11-09T17:02:37;17.60;;;3.77;;
179;SDS011;78;48.788;9.010;2022-11-09T17:05:03;16.40;;;3.90;;
179;SDS011;78;48.788;9.010;2022-11-09T17:07:29;16.90;;;4.10;;
179;SDS011;78;48.788;9.010;2022-11-09T17:10:01;16.80;;;4.00;;
179;SDS011;78;48.788;9.010;2022-11-09T17:12:28;19.77;;;3.90;;
179;SDS011;78;48.788;9.010;2022-11-09T17:14:54;18.13;;;4.00;;
179;SDS011;78;48.788;9.010;2022-11-09T17:17:20;17.83;;;3.70;;
179;SDS011;78;48.788;9.010;2022-11-09T17:19:46;17.73;;;3.83;;
179;SDS011;78;48.788;9.010;2022-11-09T17:22:12;20.60;;;3.60;;
179;SDS011;78;48.788;9.010;2022-11-09T17:24:38;16.87;;;4.00;;
179;SDS011;78;48.788;9.010;2022-11-09T17:27:06;17.10;;;3.70;;
179;SDS011;78;48.788;9.010;2022-11-09T17:29:33;19.20;;;4.30;;
179;SDS011;78;48.788;9.010;2022-11-09T17:32:01;19.30;;;3.93;;
179;SDS011;78;48.788;9.010;2022-11-09T17:34:27;16.60;;;4.10;;
179;SDS011;78;48.788;9.010;2022-11-09T17:36:53;17.70;;;4.17;;